Time;durP1;ratioP1;P1;durP2;ratioP2;P2;SDS_P1;SDS_P2;PMS_P1;PMS_P2;Temp;Humidity;BMP_temperature;BMP_pressure;BME280_temperature;BME280_humidity;BME280_pressure;Samples;Min_cycle;Max_cycle;Signal;HPM_P1;HPM_P2
2021/10/13 00:01:11;;;;;;;;;;;;;;;16.44;72.38;102038.56;5014980;28;1949;-63
2021/10/13 00:03:36;;;;;;;;;;;;;;;16.44;72.05;102035.88;5014391;28;1821;-63
2021/10/13 00:06:01;;;;;;;;;;;;;;;16.44;72.31;102043.09;4996428;28;1686;-63
2021/10/13 00:08:26;;;;;;;;;;;;;;;16.43;72.39;102044.91;4995393;28;1046;-63
2021/10/13 00:10:51;;;;;;;;;;;;;;;16.42;72.19;102045.88;4995413;28;1738;-63
2021/10/13 00:13:17;;;;;;;;;;;;;;;16.41;72.04;102046.00;4995288;28;922;-63
2021/10/13 00:15:42;;;;;;;;;;;;;;;16.42;72.54;102042.34;4995075;28;856;-63
2021/10/13 00:18:07;;;;;;;;;;;;;;;16.41;72.12;102046.00;4995300;28;792;-63
2021/10/13 00:20:32;;;;;;;;;;;;;;;16.39;72.58;102037.16;4995353;28;1898;-63
2021/10/13 00:22:57;;;;;;;;;;;;;;;16.38;72.42;102030.06;5009660;28;1736;-64
2021/10/13 00:25:22;;;;;;;;;;;;;;;16.37;72.17;102031.03;5014591;28;1767;-63
2021/10/13 00:27:47;;;;;;;;;;;;;;;16.37;72.41;102022.94;5014654;28;1062;-63
2021/10/13 00:30:12;;;;;;;;;;;;;;;16.36;72.47;102024.78;5014543;28;1802;-64
2021/10/13 00:32:37;;;;;;;;;;;;;;;16.36;72.56;102024.78;5014904;28;957;-64
2021/10/13 00:35:02;;;;;;;;;;;;;;;16.36;72.26;102026.59;5014911;28;791;-64
2021/10/13 00:37:27;;;;;;;;;;;;;;;16.34;72.05;102026.72;5014376;28;840;-64
2021/10/13 00:39:53;;;;;;;;;;;;;;;16.33;72.06;102023.16;5014016;28;1965;-63
2021/10/13 00:42:18;;;;;;;;;;;;;;;16.32;72.41;102029.50;5014689;28;937;-63
2021/10/13 00:44:43;;;;;;;;;;;;;;;16.32;72.21;102034.88;5014726;28;945;-63
2021/10/13 00:47:08;;;;;;;;;;;;;;;16.31;72.43;102035.84;5014371;28;854;-63
2021/10/13 00:49:33;;;;;;;;;;;;;;;16.31;72.47;102037.69;5015049;28;1864;-64
2021/10/13 00:51:58;;;;;;;;;;;;;;;16.29;72.17;102035.13;5018564;28;942;-64
2021/10/13 00:54:24;;;;;;;;;;;;;;;16.29;72.43;102048.59;5018224;28;933;-64
2021/10/13 00:56:49;;;;;;;;;;;;;;;16.28;72.82;102044.16;5018554;28;815;-65
2021/10/13 00:59:14;;;;;;;;;;;;;;;16.27;72.41;102045.13;5001025;28;1954;-64
2021/10/13 01:01:39;;;;;;;;;;;;;;;16.28;72.33;102043.31;4998026;28;1898;-64
2021/10/13 01:04:04;;;;;;;;;;;;;;;16.26;72.15;102045.25;4998556;28;927;-64
2021/10/13 01:06:29;;;;;;;;;;;;;;;16.25;72.15;102041.69;5006106;28;1753;-64
2021/10/13 01:08:54;;;;;;;;;;;;;;;16.25;72.37;102038.13;5016402;28;1507;-63
2021/10/13 01:11:19;;;;;;;;;;;;;;;16.25;72.31;102044.38;5017652;28;1052;-63
2021/10/13 01:13:44;;;;;;;;;;;;;;;16.26;72.32;102032.66;5017468;28;851;-62
2021/10/13 01:16:10;;;;;;;;;;;;;;;16.25;72.46;102032.75;5016775;28;1777;-63
2021/10/13 01:18:35;;;;;;;;;;;;;;;16.24;72.30;102029.19;5016432;28;855;-62
2021/10/13 01:21:00;;;;;;;;;;;;;;;16.21;72.19;102024.03;5017632;28;1916;-63
2021/10/13 01:23:25;;;;;;;;;;;;;;;16.22;72.44;102024.91;5017244;28;812;-62
2021/10/13 01:25:50;;;;;;;;;;;;;;;16.21;72.39;102026.72;5017546;28;1975;-62
2021/10/13 01:28:15;;;;;;;;;;;;;;;16.21;72.18;102031.25;5016290;28;1032;-64
2021/10/13 01:30:40;;;;;;;;;;;;;;;16.21;72.29;102023.16;5017341;28;1014;-65
2021/10/13 01:33:05;;;;;;;;;;;;;;;16.20;72.62;102030.38;5015772;28;1452;-65
2021/10/13 01:35:30;;;;;;;;;;;;;;;16.19;72.40;102042.09;5001832;28;1725;-65
2021/10/13 01:37:55;;;;;;;;;;;;;;;16.19;72.30;102047.47;5017053;28;970;-65
2021/10/13 01:40:20;;;;;;;;;;;;;;;16.19;72.28;102044.78;5016982;28;1968;-65
2021/10/13 01:42:45;;;;;;;;;;;;;;;16.19;72.62;102044.78;5016983;28;1010;-64
2021/10/13 01:45:10;;;;;;;;;;;;;;;16.17;72.47;102044.03;5017138;28;930;-64
2021/10/13 01:47:36;;;;;;;;;;;;;;;16.16;72.77;102052.19;5016808;28;1081;-65
2021/10/13 01:50:01;;;;;;;;;;;;;;;16.17;72.10;102053.94;5016766;28;812;-65
2021/10/13 01:52:26;;;;;;;;;;;;;;;16.15;72.16;102051.34;5015036;28;1708;-64
2021/10/13 01:54:51;;;;;;;;;;;;;;;16.16;72.58;102050.38;5016741;28;898;-64
2021/10/13 01:57:16;;;;;;;;;;;;;;;16.15;72.22;102055.84;5017091;28;1081;-64
2021/10/13 01:59:41;;;;;;;;;;;;;;;16.13;72.26;102060.47;5016727;28;1910;-64
2021/10/13 02:02:06;;;;;;;;;;;;;;;16.14;72.42;102067.59;5016166;28;796;-64
2021/10/13 02:04:31;;;;;;;;;;;;;;;16.11;72.47;102065.13;5016950;28;973;-64
2021/10/13 02:06:57;;;;;;;;;;;;;;;16.12;72.40;102062.31;5016705;28;854;-64
2021/10/13 02:09:22;;;;;;;;;;;;;;;16.11;72.71;102063.31;5016770;28;1616;-64
2021/10/13 02:11:47;;;;;;;;;;;;;;;16.09;72.68;102059.84;5001701;28;1806;-64
2021/10/13 02:14:12;;;;;;;;;;;;;;;16.08;72.19;102066.19;5014319;28;1640;-64
2021/10/13 02:16:37;;;;;;;;;;;;;;;16.08;72.79;102065.34;5016700;28;1054;-64
2021/10/13 02:19:02;;;;;;;;;;;;;;;16.07;72.42;102059.09;5016547;28;1785;-63
2021/10/13 02:21:27;;;;;;;;;;;;;;;16.08;72.31;102059.97;5016482;28;1890;-64
2021/10/13 02:23:55;;;;;;;;;;;;;;;16.06;72.13;102052.00;5016187;28;1281;-64
2021/10/13 02:26:20;;;;;;;;;;;;;;;16.04;72.64;102056.59;5014972;28;981;-64
2021/10/13 02:28:45;;;;;;;;;;;;;;;16.04;72.85;102048.53;5015825;28;1695;-65
2021/10/13 02:31:10;;;;;;;;;;;;;;;16.04;72.62;102045.84;5016131;28;850;-65
2021/10/13 02:33:36;;;;;;;;;;;;;;;16.04;72.23;102037.78;5015975;28;1196;-64
2021/10/13 02:36:01;;;;;;;;;;;;;;;16.03;72.74;102044.13;5016268;28;861;-65
2021/10/13 02:38:26;;;;;;;;;;;;;;;16.03;72.81;102049.50;5015597;28;1958;-64
2021/10/13 02:40:51;;;;;;;;;;;;;;;16.02;72.58;102052.31;5015872;28;1922;-63
2021/10/13 02:43:16;;;;;;;;;;;;;;;16.01;72.05;102054.13;5015875;28;1080;-63
2021/10/13 02:45:41;;;;;;;;;;;;;;;16.02;72.31;102058.53;5016243;28;1064;-62
2021/10/13 02:48:06;;;;;;;;;;;;;;;16.01;72.20;102062.19;5001240;28;1803;-63
2021/10/13 02:50:31;;;;;;;;;;;;;;;16.00;72.72;102063.16;4996462;28;911;-63
2021/10/13 02:52:56;;;;;;;;;;;;;;;16.00;72.40;102067.66;4996389;28;851;-63
2021/10/13 02:55:21;;;;;;;;;;;;;;;15.98;72.22;102074.00;4996421;28;1800;-64
2021/10/13 02:57:46;;;;;;;;;;;;;;;15.98;72.65;102081.22;4996521;28;1017;-63
2021/10/13 03:00:12;;;;;;;;;;;;;;;15.98;72.43;102081.22;4995933;28;1957;-63
2021/10/13 03:02:37;;;;;;;;;;;;;;;15.97;72.65;102077.66;4995755;28;816;-63
2021/10/13 03:05:02;;;;;;;;;;;;;;;15.97;72.51;102079.50;5000662;28;1851;-63
2021/10/13 03:07:27;;;;;;;;;;;;;;;15.96;72.60;102085.84;5016068;28;1058;-63
2021/10/13 03:09:52;;;;;;;;;;;;;;;15.95;72.68;102098.41;5015596;28;1060;-63
2021/10/13 03:12:17;;;;;;;;;;;;;;;15.95;72.81;102093.03;5015087;28;811;-63
2021/10/13 03:14:42;;;;;;;;;;;;;;;15.95;72.50;102097.56;5000104;28;1788;-63
2021/10/13 03:17:07;;;;;;;;;;;;;;;15.94;72.55;102093.16;4995831;28;994;-63
2021/10/13 03:19:32;;;;;;;;;;;;;;;15.93;72.39;102089.63;4996040;28;1898;-63
2021/10/13 03:21:57;;;;;;;;;;;;;;;15.93;72.73;102081.56;4996002;28;1061;-63
2021/10/13 03:24:22;;;;;;;;;;;;;;;15.92;72.35;102092.41;4998024;28;1709;-64
2021/10/13 03:26:47;;;;;;;;;;;;;;;15.90;72.44;102091.66;5015150;28;1638;-64
2021/10/13 03:29:12;;;;;;;;;;;;;;;15.90;72.46;102087.13;5015477;28;997;-64
2021/10/13 03:31:37;;;;;;;;;;;;;;;15.89;72.51;102088.09;5015196;28;994;-64
2021/10/13 03:34:03;;;;;;;;;;;;;;;15.88;72.62;102091.75;5015047;28;1435;-64
2021/10/13 03:36:28;;;;;;;;;;;;;;;15.88;72.50;102090.88;5015319;28;914;-64
2021/10/13 03:38:53;;;;;;;;;;;;;;;15.87;72.18;102089.16;5015129;28;1065;-63
2021/10/13 03:41:18;;;;;;;;;;;;;;;15.87;72.11;102097.22;5006533;28;1930;-63
2021/10/13 03:43:43;;;;;;;;;;;;;;;15.87;72.02;102102.59;4995930;28;1319;-63
2021/10/13 03:46:08;;;;;;;;;;;;;;;15.86;72.31;102092.81;4995709;28;1014;-63
2021/10/13 03:48:33;;;;;;;;;;;;;;;15.84;72.39;102090.22;4995228;28;1136;-64
2021/10/13 03:50:58;;;;;;;;;;;;;;;15.84;72.41;102083.97;4995462;28;998;-63
2021/10/13 03:53:23;;;;;;;;;;;;;;;15.84;72.56;102087.53;4995328;28;1068;-64
2021/10/13 03:55:48;;;;;;;;;;;;;;;15.83;72.64;102090.31;4995239;28;958;-64
2021/10/13 03:58:13;;;;;;;;;;;;;;;15.82;72.31;102099.34;4995734;28;1832;-64
2021/10/13 04:00:38;;;;;;;;;;;;;;;15.83;72.48;102093.00;4995287;28;1903;-63
2021/10/13 04:03:03;;;;;;;;;;;;;;;15.81;72.44;102093.13;4995173;28;1061;-64
2021/10/13 04:05:28;;;;;;;;;;;;;;;15.81;72.47;102094.94;4995466;28;1572;-64
2021/10/13 04:07:54;;;;;;;;;;;;;;;15.80;72.49;102093.22;4995353;28;816;-64
2021/10/13 04:10:19;;;;;;;;;;;;;;;15.80;72.15;102098.59;4995309;28;1044;-64
2021/10/13 04:12:44;;;;;;;;;;;;;;;15.78;72.34;102101.38;4995476;28;1004;-63
2021/10/13 04:15:09;;;;;;;;;;;;;;;15.77;72.67;102096.97;5001301;28;1718;-64
2021/10/13 04:17:34;;;;;;;;;;;;;;;15.77;72.44;102105.03;5013330;28;1458;-63
2021/10/13 04:19:59;;;;;;;;;;;;;;;15.78;72.58;102097.81;5014886;28;1898;-64
2021/10/13 04:22:24;;;;;;;;;;;;;;;15.77;72.49;102098.78;5015162;28;953;-64
2021/10/13 04:24:49;;;;;;;;;;;;;;;15.76;72.45;102108.72;5015508;28;1294;-64
2021/10/13 04:27:14;;;;;;;;;;;;;;;15.76;72.57;102106.03;5018377;28;796;-63
2021/10/13 04:29:39;;;;;;;;;;;;;;;15.76;72.58;102110.53;5018679;28;839;-64
2021/10/13 04:32:04;;;;;;;;;;;;;;;15.73;72.32;102105.34;5018449;28;1631;-64
2021/10/13 04:34:30;;;;;;;;;;;;;;;15.74;72.10;102115.16;5017553;28;1683;-64
2021/10/13 04:36:55;;;;;;;;;;;;;;;15.73;72.44;102108.03;5018473;28;997;-64
2021/10/13 04:39:20;;;;;;;;;;;;;;;15.72;72.63;102111.69;5018457;28;968;-64
2021/10/13 04:41:45;;;;;;;;;;;;;;;15.71;72.49;102105.44;5018401;28;1906;-64
2021/10/13 04:44:10;;;;;;;;;;;;;;;15.72;72.43;102109.00;5008028;28;1692;-62
2021/10/13 04:46:35;;;;;;;;;;;;;;;15.70;72.12;102117.16;4997606;28;977;-66
2021/10/13 04:49:00;;;;;;;;;;;;;;;15.70;72.19;102105.56;4998324;28;1014;-64
2021/10/13 04:51:25;;;;;;;;;;;;;;;15.70;72.39;102109.09;5002782;28;1818;-63
2021/10/13 04:53:50;;;;;;;;;;;;;;;15.72;72.48;102103.63;5014337;28;1592;-63
2021/10/13 04:56:15;;;;;;;;;;;;;;;15.72;72.49;102107.19;5007428;28;1277;-63
2021/10/13 04:58:40;;;;;;;;;;;;;;;15.71;72.33;102104.59;5018404;28;934;-64
2021/10/13 05:01:07;;;;;;;;;;;;;;;15.70;72.20;102105.56;5008170;28;1962;-63
2021/10/13 05:03:32;;;;;;;;;;;;;;;15.69;72.09;102106.50;5012719;28;1675;-64
2021/10/13 05:05:57;;;;;;;;;;;;;;;15.68;72.93;102102.09;5017686;28;1022;-63
2021/10/13 05:08:22;;;;;;;;;;;;;;;15.70;72.57;102105.56;5018129;28;879;-64
2021/10/13 05:10:47;;;;;;;;;;;;;;;15.69;72.60;102114.56;5010553;28;1778;-63
2021/10/13 05:13:12;;;;;;;;;;;;;;;15.67;72.84;102109.31;5008584;28;1332;-63
2021/10/13 05:15:38;;;;;;;;;;;;;;;15.67;72.50;102119.19;5006456;28;1615;-64
2021/10/13 05:18:03;;;;;;;;;;;;;;;15.67;72.96;102111.13;5006502;28;1541;-64
2021/10/13 05:20:28;;;;;;;;;;;;;;;15.66;72.85;102112.09;5007418;28;1890;-63
2021/10/13 05:22:53;;;;;;;;;;;;;;;15.66;72.52;102112.94;5023230;28;1652;-63
2021/10/13 05:25:18;;;;;;;;;;;;;;;15.65;72.97;102111.22;5007150;28;1511;-63
2021/10/13 05:27:43;;;;;;;;;;;;;;;15.65;72.38;102116.59;5004667;28;1821;-63
2021/10/13 05:30:08;;;;;;;;;;;;;;;15.64;72.50;102114.88;5004969;28;1634;-63
2021/10/13 05:32:33;;;;;;;;;;;;;;;15.65;72.52;102121.09;5004591;28;1674;-63
2021/10/13 05:34:58;;;;;;;;;;;;;;;15.62;72.59;102123.03;5002557;28;1735;-63
2021/10/13 05:37:23;;;;;;;;;;;;;;;15.62;72.71;102124.84;5001575;28;1812;-63
2021/10/13 05:39:48;;;;;;;;;;;;;;;15.61;73.00;102129.38;5005496;28;1942;-63
2021/10/13 05:42:13;;;;;;;;;;;;;;;15.62;72.80;102139.16;5006553;28;1591;-63
2021/10/13 05:44:38;;;;;;;;;;;;;;;15.63;72.57;102140.03;5010593;28;1729;-63
2021/10/13 05:47:03;;;;;;;;;;;;;;;15.60;72.57;102130.31;5001641;28;1444;-64
2021/10/13 05:49:29;;;;;;;;;;;;;;;15.61;72.51;102139.25;5003899;28;1825;-63
2021/10/13 05:51:54;;;;;;;;;;;;;;;15.61;72.35;102136.56;5005324;28;1613;-64
2021/10/13 05:54:19;;;;;;;;;;;;;;;15.59;72.51;102142.03;5022085;28;1689;-63
2021/10/13 05:56:44;;;;;;;;;;;;;;;15.58;72.25;102145.72;5008321;28;1779;-63
2021/10/13 05:59:09;;;;;;;;;;;;;;;15.59;72.34;102143.84;5007360;28;1688;-64
2021/10/13 06:01:34;;;;;;;;;;;;;;;15.59;72.10;102138.50;5011055;28;1882;-64
2021/10/13 06:03:59;;;;;;;;;;;;;;;15.58;72.25;102136.78;5005766;28;1714;-64
2021/10/13 06:06:24;;;;;;;;;;;;;;;15.59;72.54;102150.09;5003142;28;1767;-64
2021/10/13 06:08:50;;;;;;;;;;;;;;;15.58;72.11;102148.41;5025403;28;1691;-63
2021/10/13 06:11:15;;;;;;;;;;;;;;;15.57;72.67;102152.06;4999861;28;1793;-64
2021/10/13 06:13:40;;;;;;;;;;;;;;;15.56;72.51;102154.84;4997154;28;998;-64
2021/10/13 06:16:07;;;;;;;;;;;;;;;15.56;72.74;102160.22;4997238;28;1752;-64
2021/10/13 06:18:33;;;;;;;;;;;;;;;15.56;72.35;102160.22;4997261;28;938;-63
2021/10/13 06:20:58;;;;;;;;;;;;;;;15.56;72.78;102168.28;5010911;28;1890;-63
2021/10/13 06:23:23;;;;;;;;;;;;;;;15.56;72.71;102174.50;4999194;28;1782;-64
2021/10/13 06:25:48;;;;;;;;;;;;;;;15.55;72.22;102175.47;4997012;28;1431;-63
2021/10/13 06:28:13;;;;;;;;;;;;;;;15.55;72.24;102172.78;4996594;28;1010;-64
2021/10/13 06:30:38;;;;;;;;;;;;;;;15.54;72.19;102171.03;5007987;28;1687;-63
2021/10/13 06:33:03;;;;;;;;;;;;;;;15.54;72.13;102176.41;5004873;28;1603;-63
2021/10/13 06:35:28;;;;;;;;;;;;;;;15.54;72.02;102184.44;5015970;28;1715;-63
2021/10/13 06:37:54;;;;;;;;;;;;;;;15.54;72.00;102173.72;5016332;28;1057;-63
2021/10/13 06:40:19;;;;;;;;;;;;;;;15.57;72.27;102178.91;5011670;28;2138;-67
2021/10/13 06:42:44;;;;;;;;;;;;;;;15.66;71.88;102176.59;5001903;28;1543;-67
2021/10/13 06:45:10;;;;;;;;;;;;;;;15.71;72.00;102185.22;5004358;28;1565;-66
2021/10/13 06:47:35;;;;;;;;;;;;;;;15.80;71.81;102190.84;5005872;28;1340;-67
2021/10/13 06:50:00;;;;;;;;;;;;;;;15.83;71.47;102185.28;5004323;28;1363;-68
2021/10/13 06:52:25;;;;;;;;;;;;;;;15.87;71.53;102192.19;5002905;28;1518;-70
2021/10/13 06:54:50;;;;;;;;;;;;;;;15.91;71.42;102199.09;5003251;28;1827;-66
2021/10/13 06:57:15;;;;;;;;;;;;;;;15.92;71.51;102205.31;5009522;28;1538;-66
2021/10/13 06:59:40;;;;;;;;;;;;;;;15.93;71.69;102207.06;5008616;28;1883;-67
2021/10/13 07:02:05;;;;;;;;;;;;;;;15.96;71.73;102214.88;5008873;28;1989;-68
2021/10/13 07:04:31;;;;;;;;;;;;;;;15.99;71.55;102201.25;5013093;28;1875;-65
2021/10/13 07:06:57;;;;;;;;;;;;;;;16.04;71.36;102207.19;5015867;28;1413;-66
2021/10/13 07:09:22;;;;;;;;;;;;;;;16.04;71.99;102207.19;5015501;28;1546;-67
2021/10/13 07:11:47;;;;;;;;;;;;;;;16.07;71.60;102207.00;5015895;28;1017;-65
2021/10/13 07:14:12;;;;;;;;;;;;;;;16.13;71.84;102209.25;5015623;28;1567;-67
2021/10/13 07:16:37;;;;;;;;;;;;;;;16.10;72.45;102203.25;5007687;28;1618;-67
2021/10/13 07:19:02;;;;;;;;;;;;;;;16.08;71.98;102205.16;5008332;28;1637;-67
2021/10/13 07:21:27;;;;;;;;;;;;;;;16.06;72.42;102205.28;5006577;28;1960;-65
2021/10/13 07:23:52;;;;;;;;;;;;;;;16.05;72.37;102208.91;5015282;28;1411;-66
2021/10/13 07:26:17;;;;;;;;;;;;;;;16.06;72.78;102205.28;5020869;28;1912;-67
2021/10/13 07:28:42;;;;;;;;;;;;;;;16.07;72.26;102201.63;5010247;28;1860;-68
2021/10/13 07:31:07;;;;;;;;;;;;;;;16.13;72.34;102206.56;5011544;28;1688;-67
2021/10/13 07:33:32;;;;;;;;;;;;;;;16.18;72.50;102211.66;4999350;28;1423;-69
2021/10/13 07:35:58;;;;;;;;;;;;;;;16.23;72.43;102212.22;5015241;28;1798;-70
2021/10/13 07:38:24;;;;;;;;;;;;;;;16.23;72.51;102210.38;5015097;28;1452;-68
2021/10/13 07:40:49;;;;;;;;;;;;;;;16.26;72.33;102212.88;5014660;28;1913;-65
2021/10/13 07:43:14;;;;;;;;;;;;;;;16.31;72.20;102209.84;5014960;28;1220;-67
2021/10/13 07:45:39;;;;;;;;;;;;;;;16.41;72.14;102208.28;5009403;28;1750;-66
2021/10/13 07:48:04;;;;;;;;;;;;;;;16.47;72.42;102215.09;5012040;28;1604;-71
2021/10/13 07:50:29;;;;;;;;;;;;;;;16.47;72.02;102217.78;4999094;28;1782;-71
2021/10/13 07:52:55;;;;;;;;;;;;;;;16.41;71.85;102219.03;4995602;28;858;-71
2021/10/13 07:55:20;;;;;;;;;;;;;;;16.42;71.75;102220.78;5002356;28;1616;-69
2021/10/13 07:57:45;;;;;;;;;;;;;;;16.54;72.07;102219.06;5010674;28;1681;-68
2021/10/13 08:00:10;;;;;;;;;;;;;;;16.59;72.10;102217.78;5015524;28;1898;-68
2021/10/13 08:02:35;;;;;;;;;;;;;;;16.66;71.88;102220.94;5013709;28;1558;-66
2021/10/13 08:05:00;;;;;;;;;;;;;;;16.74;72.00;102226.69;5012400;28;1841;-67
2021/10/13 08:07:25;;;;;;;;;;;;;;;16.79;71.79;102234.44;5019417;28;973;-69
2021/10/13 08:09:50;;;;;;;;;;;;;;;16.84;71.69;102238.53;5019054;28;1751;-70
2021/10/13 08:12:15;;;;;;;;;;;;;;;16.90;71.44;102243.50;5018657;28;1009;-67
2021/10/13 08:14:41;;;;;;;;;;;;;;;16.96;71.45;102229.63;5009838;28;1609;-67
2021/10/13 08:17:07;;;;;;;;;;;;;;;17.00;70.64;102239.22;4999158;28;881;-66
2021/10/13 08:19:32;;;;;;;;;;;;;;;17.09;71.23;102242.22;4999381;28;844;-67
2021/10/13 08:21:57;;;;;;;;;;;;;;;17.17;70.36;102245.25;4999424;28;1954;-67
2021/10/13 08:24:22;;;;;;;;;;;;;;;17.23;70.10;102242.97;5004144;28;1688;-68
2021/10/13 08:26:47;;;;;;;;;;;;;;;17.29;70.17;102244.38;5017569;28;993;-68
2021/10/13 08:29:12;;;;;;;;;;;;;;;17.30;70.21;102236.19;5015695;28;1756;-67
2021/10/13 08:31:37;;;;;;;;;;;;;;;17.31;69.25;102245.97;5014415;28;1832;-67
2021/10/13 08:34:03;;;;;;;;;;;;;;;17.26;70.18;102245.44;5013404;28;1644;-66
2021/10/13 08:36:28;;;;;;;;;;;;;;;17.39;69.93;102249.94;5016745;28;831;-68
2021/10/13 08:38:53;;;;;;;;;;;;;;;17.45;70.14;102253.06;5013940;28;1483;-68
2021/10/13 08:41:18;;;;;;;;;;;;;;;17.48;70.53;102260.94;5006034;28;1968;-66
2021/10/13 08:43:43;;;;;;;;;;;;;;;17.48;70.98;102263.66;5014693;28;1718;-66
2021/10/13 08:46:08;;;;;;;;;;;;;;;17.44;70.67;102259.44;5018037;28;1431;-67
2021/10/13 08:48:33;;;;;;;;;;;;;;;17.43;70.47;102256.84;5018041;28;1751;-68
2021/10/13 08:50:58;;;;;;;;;;;;;;;17.32;70.74;102254.94;5015731;28;1892;-68
2021/10/13 08:53:24;;;;;;;;;;;;;;;17.27;70.00;102254.38;5014868;28;1710;-68
2021/10/13 08:55:49;;;;;;;;;;;;;;;17.29;69.31;102257.84;5018495;28;1516;-68
2021/10/13 08:58:14;;;;;;;;;;;;;;;17.29;69.40;102256.00;5013834;28;1758;-69
2021/10/13 09:00:40;;;;;;;;;;;;;;;17.32;69.95;102255.78;5011803;28;1952;-68
2021/10/13 09:03:05;;;;;;;;;;;;;;;17.31;70.13;102258.59;5012665;28;1638;-68
2021/10/13 09:05:30;;;;;;;;;;;;;;;17.28;69.93;102264.19;5011749;28;1808;-68
2021/10/13 09:07:56;;;;;;;;;;;;;;;17.24;69.56;102263.53;5017768;28;1576;-68
2021/10/13 09:10:21;;;;;;;;;;;;;;;17.17;69.99;102258.72;5016081;28;1730;-67
2021/10/13 09:12:46;;;;;;;;;;;;;;;17.22;70.46;102253.84;5008892;28;1829;-67
2021/10/13 09:15:11;;;;;;;;;;;;;;;17.26;70.98;102255.34;5009242;28;1700;-65
2021/10/13 09:17:36;;;;;;;;;;;;;;;17.29;70.92;102260.53;5013786;28;1981;-69
2021/10/13 09:20:02;;;;;;;;;;;;;;;17.32;70.92;102260.31;5011914;28;1911;-68
2021/10/13 09:22:27;;;;;;;;;;;;;;;17.32;70.57;102263.00;5011596;28;1561;-69
2021/10/13 09:24:52;;;;;;;;;;;;;;;17.35;71.25;102262.81;5005837;28;1867;-68
2021/10/13 09:27:17;;;;;;;;;;;;;;;17.33;71.12;102262.03;5016935;28;1895;-67
2021/10/13 09:29:42;;;;;;;;;;;;;;;17.31;70.71;102255.91;5011760;28;1791;-69
2021/10/13 09:32:07;;;;;;;;;;;;;;;17.31;70.74;102261.28;5017349;28;1697;-69
2021/10/13 09:34:32;;;;;;;;;;;;;;;17.31;71.15;102263.97;5017059;28;1529;-68
2021/10/13 09:37:01;;;;;;;;;;;;;;;17.35;70.83;102265.50;5009907;28;1705;-70
2021/10/13 09:39:26;;;;;;;;;;;;;;;17.36;70.80;102267.22;5007648;28;1957;-68
2021/10/13 09:41:51;;;;;;;;;;;;;;;17.35;71.15;102271.75;5010504;28;1981;-65
2021/10/13 09:44:16;;;;;;;;;;;;;;;17.37;70.77;102268.09;5010991;28;1714;-67
2021/10/13 09:46:41;;;;;;;;;;;;;;;17.38;70.65;102269.81;5011213;28;1564;-68
2021/10/13 09:49:06;;;;;;;;;;;;;;;17.39;71.01;102258.03;5012797;28;1576;-69
2021/10/13 09:51:31;;;;;;;;;;;;;;;17.39;70.67;102261.59;5006657;28;1829;-68
2021/10/13 09:53:56;;;;;;;;;;;;;;;17.37;70.95;102258.16;5002469;28;1595;-68
2021/10/13 09:56:21;;;;;;;;;;;;;;;17.39;70.77;102256.19;5011697;28;1597;-68
2021/10/13 09:58:46;;;;;;;;;;;;;;;17.38;70.99;102254.47;5014470;28;1567;-71
2021/10/13 10:01:11;;;;;;;;;;;;;;;17.36;71.11;102278.00;5014371;28;1898;-65
2021/10/13 10:03:36;;;;;;;;;;;;;;;17.33;70.71;102273.69;5011159;28;1742;-65
2021/10/13 10:06:02;;;;;;;;;;;;;;;17.38;71.16;102273.34;5006032;28;1464;-68
2021/10/13 10:08:27;;;;;;;;;;;;;;;17.43;70.91;102267.63;5009400;28;1448;-70
2021/10/13 10:10:52;;;;;;;;;;;;;;;17.41;71.27;102283.03;5005697;28;1847;-70
2021/10/13 10:13:17;;;;;;;;;;;;;;;17.37;70.55;102279.72;5005678;28;1687;-70
2021/10/13 10:15:42;;;;;;;;;;;;;;;17.42;70.75;102282.94;5014834;28;1681;-66
2021/10/13 10:18:07;;;;;;;;;;;;;;;17.35;70.14;102281.66;5012014;28;1602;-66
2021/10/13 10:20:32;;;;;;;;;;;;;;;17.32;70.57;102282.75;4998217;28;1898;-65
2021/10/13 10:22:57;;;;;;;;;;;;;;;17.26;70.59;102285.00;5010733;28;1498;-66
2021/10/13 10:25:22;;;;;;;;;;;;;;;17.25;70.91;102285.97;5014705;28;1895;-66
2021/10/13 10:27:47;;;;;;;;;;;;;;;17.22;69.74;102280.78;5012470;28;1596;-66
2021/10/13 10:30:12;;;;;;;;;;;;;;;17.21;70.52;102287.13;5014164;28;1714;-65
2021/10/13 10:32:38;;;;;;;;;;;;;;;17.21;70.74;102285.31;5015288;28;1493;-65
2021/10/13 10:35:03;;;;;;;;;;;;;;;17.21;70.49;102281.75;5015344;28;1619;-65
2021/10/13 10:37:28;;;;;;;;;;;;;;;17.22;70.98;102283.47;5010294;28;1643;-66
2021/10/13 10:39:53;;;;;;;;;;;;;;;17.21;70.74;102281.75;4996916;28;1911;-66
2021/10/13 10:42:18;;;;;;;;;;;;;;;17.16;69.50;102294.69;5004098;28;1570;-64
2021/10/13 10:44:43;;;;;;;;;;;;;;;17.13;69.69;102303.00;5004807;28;1701;-64
2021/10/13 10:47:08;;;;;;;;;;;;;;;17.10;69.88;102301.38;5008803;28;1638;-67
2021/10/13 10:49:33;;;;;;;;;;;;;;;17.19;70.19;102297.19;5006524;28;1837;-69
2021/10/13 10:51:58;;;;;;;;;;;;;;;17.14;69.66;102286.72;5005813;28;1814;-67
2021/10/13 10:54:23;;;;;;;;;;;;;;;17.15;69.57;102292.97;5009287;28;1881;-67
2021/10/13 10:56:49;;;;;;;;;;;;;;;17.18;70.44;102303.53;5004756;28;1810;-64
2021/10/13 10:59:15;;;;;;;;;;;;;;;17.20;69.92;102305.13;5027484;28;1663;-65
2021/10/13 11:01:41;;;;;;;;;;;;;;;17.26;70.70;102302.03;5014041;28;1898;-66
2021/10/13 11:04:06;;;;;;;;;;;;;;;17.31;70.74;102296.31;5004747;28;1942;-66
2021/10/13 11:06:31;;;;;;;;;;;;;;;17.31;69.64;102296.31;5011588;28;1784;-66
2021/10/13 11:08:56;;;;;;;;;;;;;;;17.37;69.89;102287.81;5004921;28;1701;-65
2021/10/13 11:11:21;;;;;;;;;;;;;;;17.42;69.84;102299.09;5038584;28;1811;-66
2021/10/13 11:13:46;;;;;;;;;;;;;;;17.47;69.87;102291.56;5020460;28;1757;-65
2021/10/13 11:16:11;;;;;;;;;;;;;;;17.48;69.98;102296.00;5014852;28;1864;-65
2021/10/13 11:18:36;;;;;;;;;;;;;;;17.50;69.52;102294.06;5004395;28;1782;-65
2021/10/13 11:21:01;;;;;;;;;;;;;;;17.49;69.68;102297.72;5010579;28;1955;-64
2021/10/13 11:23:26;;;;;;;;;;;;;;;17.51;69.21;102297.59;5011139;28;1889;-66
2021/10/13 11:25:51;;;;;;;;;;;;;;;17.54;69.78;102292.00;5010593;28;1181;-66
2021/10/13 11:28:16;;;;;;;;;;;;;;;17.55;69.93;102299.13;4997495;28;1926;-65
2021/10/13 11:30:42;;;;;;;;;;;;;;;17.58;70.62;102294.34;5018162;28;2312;-66
2021/10/13 11:33:07;;;;;;;;;;;;;;;17.62;70.33;102290.47;5011824;28;1776;-66
2021/10/13 11:35:32;;;;;;;;;;;;;;;17.66;70.62;102297.41;5013357;28;1915;-67
2021/10/13 11:37:57;;;;;;;;;;;;;;;17.68;70.20;102295.47;5011170;28;2035;-65
2021/10/13 11:40:22;;;;;;;;;;;;;;;17.75;70.44;102300.41;4998907;28;1903;-64
2021/10/13 11:42:47;;;;;;;;;;;;;;;17.74;70.81;102291.44;4996920;28;1991;-64
2021/10/13 11:45:13;;;;;;;;;;;;;;;17.77;70.57;102287.66;4995808;28;1021;-65
2021/10/13 11:47:38;;;;;;;;;;;;;;;17.73;70.79;102295.16;5007124;28;1798;-66
2021/10/13 11:50:03;;;;;;;;;;;;;;;17.73;70.64;102302.38;5002983;28;1812;-65
2021/10/13 11:52:28;;;;;;;;;;;;;;;17.75;70.44;102295.00;4997853;28;1707;-65
2021/10/13 11:54:53;;;;;;;;;;;;;;;17.72;70.39;102295.25;5017769;28;1793;-67
2021/10/13 11:57:18;;;;;;;;;;;;;;;17.70;70.34;102306.16;5011075;28;1932;-66
2021/10/13 11:59:43;;;;;;;;;;;;;;;17.68;71.08;102308.09;5003973;28;1949;-64
2021/10/13 12:02:08;;;;;;;;;;;;;;;17.65;71.22;102303.78;5002979;28;2019;-67
2021/10/13 12:04:33;;;;;;;;;;;;;;;17.63;71.14;102305.69;5006375;28;1872;-63
2021/10/13 12:06:59;;;;;;;;;;;;;;;17.62;70.59;102298.56;5011132;28;1947;-65
2021/10/13 12:09:24;;;;;;;;;;;;;;;17.61;70.91;102307.63;5001217;28;1760;-63
2021/10/13 12:11:49;;;;;;;;;;;;;;;17.61;71.44;102299.53;5015000;28;828;-63
2021/10/13 12:14:14;;;;;;;;;;;;;;;17.63;70.76;102302.97;5013383;28;1821;-62
2021/10/13 12:16:40;;;;;;;;;;;;;;;17.61;70.94;102304.91;5006481;28;1566;-64
2021/10/13 12:19:05;;;;;;;;;;;;;;;17.59;70.91;102306.84;5014340;28;1929;-62
2021/10/13 12:21:30;;;;;;;;;;;;;;;17.59;70.80;102300.59;5023906;28;1894;-63
2021/10/13 12:23:56;;;;;;;;;;;;;;;17.57;71.31;102298.00;5006950;28;1746;-64
2021/10/13 12:26:21;;;;;;;;;;;;;;;17.58;71.10;102288.97;5002271;28;1584;-62
2021/10/13 12:28:46;;;;;;;;;;;;;;;17.59;71.02;102293.38;5007257;28;1756;-65
2021/10/13 12:31:12;;;;;;;;;;;;;;;17.59;71.15;102284.44;5008641;28;1538;-63
2021/10/13 12:33:37;;;;;;;;;;;;;;;17.61;70.58;102283.34;4998365;28;1887;-64
2021/10/13 12:36:02;;;;;;;;;;;;;;;17.59;70.88;102285.28;5007268;28;1573;-66